Time;durP1;ratioP1;P1;durP2;ratioP2;P2;SDS_P1;SDS_P2;PMS_P1;PMS_P2;Temp;Humidity;BMP_temperature;BMP_pressure;BME280_temperature;BME280_humidity;BME280_pressure;Samples;Min_cycle;Max_cycle;Signal;HPM_P1;HPM_P2
2023/10/25 00:01:16;;;;;;;9.00;6.15;;;;;;;;;;5034551;28;20406;-92
2023/10/25 00:03:42;;;;;;;13.80;6.17;;;;;;;;;;5019122;28;20421;-93
2023/10/25 00:06:08;;;;;;;9.52;5.93;;;;;;;;;;5035178;28;20413;-92
2023/10/25 00:08:38;;;;;;;11.75;6.00;;;;;;;;;;5018893;28;20456;-92
2023/10/25 00:11:05;;;;;;;11.50;6.07;;;;;;;;;;5018541;28;20438;-93
2023/10/25 00:13:31;;;;;;;10.37;5.73;;;;;;;;;;5034063;28;20406;-92
2023/10/25 00:16:00;;;;;;;9.10;6.00;;;;;;;;;;5018014;28;20424;-93
2023/10/25 00:18:27;;;;;;;10.38;5.80;;;;;;;;;;5022516;28;20403;-92
2023/10/25 00:20:53;;;;;;;9.20;5.80;;;;;;;;;;5015174;28;20498;-92
2023/10/25 00:23:22;;;;;;;10.57;5.97;;;;;;;;;;5014300;28;20470;-92
2023/10/25 00:25:49;;;;;;;13.65;6.13;;;;;;;;;;5014624;28;20443;-92
2023/10/25 00:28:15;;;;;;;11.52;5.85;;;;;;;;;;5014587;28;20411;-93
2023/10/25 00:30:43;;;;;;;12.00;6.18;;;;;;;;;;5021993;28;20430;-92
2023/10/25 00:33:10;;;;;;;9.65;5.88;;;;;;;;;;5034219;28;20413;-93
2023/10/25 00:35:36;;;;;;;10.13;6.20;;;;;;;;;;5031058;28;20473;-93
2023/10/25 00:38:02;;;;;;;11.53;5.90;;;;;;;;;;5018460;28;20422;-92
2023/10/25 00:40:31;;;;;;;10.90;5.85;;;;;;;;;;5033931;28;20394;-93
2023/10/25 00:43:16;;;;;;;13.00;6.10;;;;;;;;;;5034231;28;20409;-93
2023/10/25 00:45:52;;;;;;;9.55;5.80;;;;;;;;;;5034286;28;20409;-93
2023/10/25 00:48:18;;;;;;;8.68;5.38;;;;;;;;;;5034260;28;20409;-93
2023/10/25 00:50:44;;;;;;;11.23;6.20;;;;;;;;;;5033536;28;20434;-92
2023/10/25 00:53:10;;;;;;;10.13;5.20;;;;;;;;;;5034046;28;20418;-93
2023/10/25 00:55:39;;;;;;;10.32;5.97;;;;;;;;;;5034404;28;20417;-93
2023/10/25 00:58:05;;;;;;;11.38;5.40;;;;;;;;;;5034182;28;20398;-93
2023/10/25 01:00:37;;;;;;;8.93;4.70;;;;;;;;;;5034389;28;20244;-93
2023/10/25 01:03:06;;;;;;;9.48;5.30;;;;;;;;;;5033778;28;20409;-94
2023/10/25 01:05:35;;;;;;;12.38;5.57;;;;;;;;;;5023685;28;20416;-92
2023/10/25 01:08:01;;;;;;;11.00;5.60;;;;;;;;;;4997651;28;20451;-93
2023/10/25 01:10:28;;;;;;;9.13;4.90;;;;;;;;;;4998457;28;20268;-93
2023/10/25 01:12:57;;;;;;;6.75;4.32;;;;;;;;;;5014681;28;20133;-92
2023/10/25 01:15:23;;;;;;;7.97;4.10;;;;;;;;;;5014799;28;20174;-92
2023/10/25 01:17:52;;;;;;;7.47;4.47;;;;;;;;;;5015094;28;20180;-93
2023/10/25 01:20:23;;;;;;;11.20;5.73;;;;;;;;;;4997923;28;20403;-92
2023/10/25 01:22:49;;;;;;;9.43;5.43;;;;;;;;;;5013928;28;20407;-92
2023/10/25 01:25:17;;;;;;;10.85;5.75;;;;;;;;;;5013747;28;20409;-93
2023/10/25 01:27:44;;;;;;;9.87;5.50;;;;;;;;;;5013495;28;20418;-93
2023/10/25 01:30:10;;;;;;;7.93;5.03;;;;;;;;;;5014051;28;20256;-92
2023/10/25 01:32:36;;;;;;;7.33;4.60;;;;;;;;;;5014172;28;20197;-93
2023/10/25 01:35:05;;;;;;;10.83;4.70;;;;;;;;;;5033381;28;20193;-92
2023/10/25 01:37:31;;;;;;;11.07;4.77;;;;;;;;;;5014136;28;20169;-93
2023/10/25 01:39:57;;;;;;;11.53;4.73;;;;;;;;;;5046791;28;20174;-93
2023/10/25 01:42:25;;;;;;;10.43;5.90;;;;;;;;;;5046449;28;20415;-94
2023/10/25 01:44:51;;;;;;;9.87;4.80;;;;;;;;;;5047376;28;20204;-93
2023/10/25 01:47:17;;;;;;;8.82;4.90;;;;;;;;;;5030504;28;20423;-93
2023/10/25 01:49:43;;;;;;;11.17;4.97;;;;;;;;;;5047067;28;20256;-93
2023/10/25 01:52:12;;;;;;;10.45;5.32;;;;;;;;;;5042242;28;20470;-93
2023/10/25 01:54:40;;;;;;;9.83;5.20;;;;;;;;;;5014489;28;20177;-93
2023/10/25 01:57:13;;;;;;;9.17;5.20;;;;;;;;;;5013159;28;20407;-84
2023/10/25 01:59:40;;;;;;;9.10;4.57;;;;;;;;;;5012538;28;20263;-84
2023/10/25 02:02:07;;;;;;;8.48;4.60;;;;;;;;;;5038254;28;20417;-84
2023/10/25 02:04:33;;;;;;;8.17;4.80;;;;;;;;;;5014307;28;20419;-85
2023/10/25 02:06:59;;;;;;;8.23;5.55;;;;;;;;;;5012051;28;20481;-84
2023/10/25 02:09:25;;;;;;;11.07;4.67;;;;;;;;;;5012435;28;20176;-84
2023/10/25 02:11:51;;;;;;;10.47;4.53;;;;;;;;;;5013379;28;20211;-84
2023/10/25 02:14:20;;;;;;;9.63;5.20;;;;;;;;;;5011058;28;20403;-84
2023/10/25 02:16:47;;;;;;;10.10;5.70;;;;;;;;;;5014195;28;20423;-85
2023/10/25 02:19:13;;;;;;;9.00;4.63;;;;;;;;;;5013508;28;20230;-84
2023/10/25 02:21:41;;;;;;;10.23;5.28;;;;;;;;;;5019017;28;20502;-85
2023/10/25 02:24:07;;;;;;;11.50;5.03;;;;;;;;;;5007957;28;20422;-84
2023/10/25 02:26:33;;;;;;;8.93;5.38;;;;;;;;;;5017604;28;20403;-84
2023/10/25 02:29:03;;;;;;;9.48;5.28;;;;;;;;;;5011703;28;20407;-85
2023/10/25 02:31:29;;;;;;;9.27;5.20;;;;;;;;;;5010666;28;20435;-84
2023/10/25 02:33:55;;;;;;;10.63;5.35;;;;;;;;;;5028011;28;20417;-85
2023/10/25 02:36:21;;;;;;;8.80;4.50;;;;;;;;;;5021810;28;20288;-84
2023/10/25 02:38:50;;;;;;;5.33;4.20;;;;;;;;;;5015296;28;20181;-84
2023/10/25 02:41:16;;;;;;;4.77;4.20;;;;;;;;;;5017541;28;20268;-85
2023/10/25 02:43:42;;;;;;;5.87;4.23;;;;;;;;;;5011773;28;20173;-84
2023/10/25 02:46:14;;;;;;;9.13;4.95;;;;;;;;;;5016351;28;20415;-85
2023/10/25 02:48:40;;;;;;;6.23;4.97;;;;;;;;;;5017179;28;20220;-84
2023/10/25 02:51:17;;;;;;;;;;;;;;;;;;;;;
2023/10/25 02:53:45;;;;;;;7.77;5.00;;;;;;;;;;5016480;28;20181;-85
2023/10/25 02:56:17;;;;;;;7.70;4.43;;;;;;;;;;5010504;28;20245;-84
2023/10/25 02:58:50;;;;;;;7.40;5.17;;;;;;;;;;5012543;28;20213;-85
2023/10/25 03:01:21;;;;;;;8.37;6.20;;;;;;;;;;5011980;28;20434;-84
2023/10/25 03:03:49;;;;;;;9.90;6.22;;;;;;;;;;5012340;28;20416;-84
2023/10/25 03:06:18;;;;;;;8.05;5.55;;;;;;;;;;5018238;28;20430;-84
2023/10/25 03:08:44;;;;;;;6.72;5.30;;;;;;;;;;5018148;28;20491;-84
2023/10/25 03:11:10;;;;;;;7.05;5.20;;;;;;;;;;5011940;28;20857;-84
2023/10/25 03:13:36;;;;;;;6.60;4.77;;;;;;;;;;5001063;28;20177;-84
2023/10/25 03:16:05;;;;;;;8.45;5.03;;;;;;;;;;5019732;28;20460;-84
2023/10/25 03:18:32;;;;;;;8.13;5.00;;;;;;;;;;5001684;28;20197;-85
2023/10/25 03:21:03;;;;;;;8.02;5.35;;;;;;;;;;5009650;28;20479;-85
2023/10/25 03:23:30;;;;;;;8.68;5.50;;;;;;;;;;5008825;28;20498;-84
2023/10/25 03:25:57;;;;;;;7.03;5.70;;;;;;;;;;5012083;28;20413;-84
2023/10/25 03:28:25;;;;;;;7.95;5.80;;;;;;;;;;5016412;28;20405;-84
2023/10/25 03:30:51;;;;;;;8.63;5.40;;;;;;;;;;5022051;28;20197;-84
2023/10/25 03:33:17;;;;;;;8.55;6.00;;;;;;;;;;5008552;28;20495;-85
2023/10/25 03:35:50;;;;;;;9.20;6.00;;;;;;;;;;5019143;28;20414;-85
2023/10/25 03:38:21;;;;;;;8.97;5.33;;;;;;;;;;5015676;28;20193;-85
2023/10/25 03:40:48;;;;;;;9.50;5.37;;;;;;;;;;5023422;28;20216;-85
2023/10/25 03:43:17;;;;;;;9.50;5.27;;;;;;;;;;5015775;28;20181;-84
2023/10/25 03:45:46;;;;;;;7.73;5.07;;;;;;;;;;5015682;28;20182;-85
2023/10/25 03:48:12;;;;;;;6.03;5.20;;;;;;;;;;5015882;28;20181;-84
2023/10/25 03:50:38;;;;;;;9.47;5.53;;;;;;;;;;5018872;28;20182;-84
2023/10/25 03:53:09;;;;;;;8.13;5.30;;;;;;;;;;5015398;28;20339;-85
2023/10/25 03:55:38;;;;;;;9.93;6.95;;;;;;;;;;5014385;28;20411;-85
2023/10/25 03:58:06;;;;;;;7.37;5.43;;;;;;;;;;5015233;28;20222;-85
2023/10/25 04:00:32;;;;;;;7.20;5.23;;;;;;;;;;5015091;28;20185;-85
2023/10/25 04:02:59;;;;;;;8.50;5.43;;;;;;;;;;5015183;28;20181;-85
2023/10/25 04:05:27;;;;;;;10.57;5.53;;;;;;;;;;5012355;28;20186;-85
2023/10/25 04:07:53;;;;;;;9.97;5.97;;;;;;;;;;5017763;28;20266;-85
2023/10/25 04:10:19;;;;;;;12.95;7.05;;;;;;;;;;4998275;28;20411;-84
2023/10/25 04:12:46;;;;;;;8.70;5.67;;;;;;;;;;5028555;28;20188;-84
2023/10/25 04:15:14;;;;;;;10.20;6.65;;;;;;;;;;5012641;28;20419;-84
2023/10/25 04:17:40;;;;;;;9.55;6.80;;;;;;;;;;5011024;28;20417;-85
2023/10/25 04:20:07;;;;;;;7.33;5.73;;;;;;;;;;4999436;28;20248;-85
2023/10/25 04:22:35;;;;;;;10.50;7.03;;;;;;;;;;4994965;28;20423;-84
2023/10/25 04:25:03;;;;;;;8.03;5.60;;;;;;;;;;4999784;28;20430;-84
2023/10/25 04:27:29;;;;;;;9.97;6.40;;;;;;;;;;5014791;28;20432;-84
2023/10/25 04:29:58;;;;;;;9.50;6.90;;;;;;;;;;5016870;28;20406;-84
2023/10/25 04:32:24;;;;;;;10.43;6.03;;;;;;;;;;5011410;28;20217;-84
2023/10/25 04:34:51;;;;;;;8.40;5.63;;;;;;;;;;5000054;28;20214;-84
2023/10/25 04:37:24;;;;;;;12.43;7.30;;;;;;;;;;5027982;28;20422;-84
2023/10/25 04:39:50;;;;;;;12.80;6.27;;;;;;;;;;5011185;28;20239;-84
2023/10/25 04:42:19;;;;;;;11.83;6.23;;;;;;;;;;5013091;28;20185;-84
2023/10/25 04:44:45;;;;;;;11.20;6.82;;;;;;;;;;5016016;28;20438;-84
2023/10/25 04:47:13;;;;;;;12.20;7.25;;;;;;;;;;5017311;28;20408;-84
2023/10/25 04:49:42;;;;;;;10.93;7.57;;;;;;;;;;5014321;28;20424;-84
2023/10/25 04:52:10;;;;;;;9.93;6.33;;;;;;;;;;5012722;28;20198;-85
2023/10/25 04:54:39;;;;;;;10.67;7.30;;;;;;;;;;5015850;28;20435;-85
2023/10/25 04:57:08;;;;;;;9.48;7.13;;;;;;;;;;5013973;28;20407;-85
2023/10/25 04:59:34;;;;;;;11.85;7.60;;;;;;;;;;5012194;28;20420;-85
2023/10/25 05:02:02;;;;;;;13.60;8.30;;;;;;;;;;5013110;28;20442;-83
2023/10/25 05:04:30;;;;;;;10.43;6.47;;;;;;;;;;5009292;28;20189;-83
2023/10/25 05:07:02;;;;;;;11.38;7.88;;;;;;;;;;5012643;28;20447;-86
2023/10/25 05:09:28;;;;;;;11.13;7.53;;;;;;;;;;5022820;28;20461;-82
2023/10/25 05:12:03;;;;;;;11.15;7.47;;;;;;;;;;5013719;28;20545;-83
2023/10/25 05:14:29;;;;;;;11.13;7.95;;;;;;;;;;5013239;28;20414;-83
2023/10/25 05:16:58;;;;;;;11.52;7.60;;;;;;;;;;5013901;28;20427;-83
2023/10/25 05:19:24;;;;;;;10.13;7.55;;;;;;;;;;5012436;28;20480;-84
2023/10/25 05:21:51;;;;;;;10.00;7.03;;;;;;;;;;5013065;28;20419;-83
2023/10/25 05:24:26;;;;;;;10.97;7.40;;;;;;;;;;5012808;28;20418;-83
2023/10/25 05:26:56;;;;;;;8.40;7.50;;;;;;;;;;5013066;28;20534;-83
2023/10/25 05:29:22;;;;;;;10.40;7.50;;;;;;;;;;5014323;28;20462;-84
2023/10/25 05:31:48;;;;;;;11.77;7.35;;;;;;;;;;4999922;28;20443;-84
2023/10/25 05:34:17;;;;;;;10.75;8.13;;;;;;;;;;5012537;28;20403;-84
2023/10/25 05:36:46;;;;;;;11.55;8.10;;;;;;;;;;5028709;28;20446;-83
2023/10/25 05:39:12;;;;;;;14.32;8.75;;;;;;;;;;5045472;28;20414;-83
2023/10/25 05:41:41;;;;;;;11.23;8.50;;;;;;;;;;5040240;28;20403;-83
2023/10/25 05:44:10;;;;;;;11.27;8.43;;;;;;;;;;5012674;28;20411;-84
2023/10/25 05:46:39;;;;;;;9.05;8.15;;;;;;;;;;5012826;28;20411;-83
2023/10/25 05:49:05;;;;;;;11.52;9.05;;;;;;;;;;5008521;28;20447;-83
2023/10/25 05:51:34;;;;;;;13.30;9.67;;;;;;;;;;5006292;28;20444;-83
2023/10/25 05:54:07;;;;;;;12.93;9.13;;;;;;;;;;5012758;28;20450;-84
2023/10/25 05:56:36;;;;;;;12.80;9.18;;;;;;;;;;5012555;28;20399;-83
2023/10/25 05:59:02;;;;;;;13.65;9.50;;;;;;;;;;5012728;28;20495;-83
2023/10/25 06:01:47;;;;;;;12.20;10.20;;;;;;;;;;5023613;28;20477;-83
2023/10/25 06:04:13;;;;;;;12.68;9.60;;;;;;;;;;5012257;28;20403;-83
2023/10/25 06:06:41;;;;;;;14.52;10.40;;;;;;;;;;5025598;28;20429;-83
2023/10/25 06:09:11;;;;;;;12.27;9.32;;;;;;;;;;5015371;28;20407;-83
2023/10/25 06:11:39;;;;;;;13.53;9.23;;;;;;;;;;5013308;28;20521;-83
2023/10/25 06:14:09;;;;;;;12.63;9.68;;;;;;;;;;5012413;28;20502;-83
2023/10/25 06:16:35;;;;;;;15.87;10.03;;;;;;;;;;4992892;28;20433;-83
2023/10/25 06:19:01;;;;;;;14.90;10.18;;;;;;;;;;5003110;28;20430;-83
2023/10/25 06:21:30;;;;;;;13.75;10.32;;;;;;;;;;5011922;28;20411;-83
2023/10/25 06:23:56;;;;;;;14.52;10.02;;;;;;;;;;5012041;28;20437;-83
2023/10/25 06:26:24;;;;;;;12.07;9.15;;;;;;;;;;5012678;28;20407;-83
2023/10/25 06:28:53;;;;;;;14.65;9.40;;;;;;;;;;5000654;28;20493;-84
2023/10/25 06:31:19;;;;;;;14.50;9.80;;;;;;;;;;5008531;28;20419;-83
2023/10/25 06:33:45;;;;;;;13.73;9.43;;;;;;;;;;5011505;28;20403;-83
2023/10/25 06:36:14;;;;;;;13.68;9.90;;;;;;;;;;5014723;28;20407;-83
2023/10/25 06:38:41;;;;;;;13.77;9.50;;;;;;;;;;5014250;28;20411;-83
2023/10/25 06:41:25;;;;;;;15.40;9.57;;;;;;;;;;5017528;28;20479;-83
2023/10/25 06:43:54;;;;;;;13.07;8.98;;;;;;;;;;4992480;28;20416;-83
2023/10/25 06:46:24;;;;;;;12.55;9.25;;;;;;;;;;5001323;28;20424;-83
2023/10/25 06:48:52;;;;;;;13.90;9.40;;;;;;;;;;5011662;28;20494;-83
2023/10/25 06:51:19;;;;;;;15.32;9.43;;;;;;;;;;5013860;28;20438;-83
2023/10/25 06:53:48;;;;;;;14.05;9.15;;;;;;;;;;5031840;28;20410;-84
2023/10/25 06:56:14;;;;;;;14.00;9.13;;;;;;;;;;5015894;28;20406;-83
2023/10/25 06:58:40;;;;;;;11.77;9.77;;;;;;;;;;5000273;28;20455;-83
2023/10/25 07:01:12;;;;;;;15.43;8.75;;;;;;;;;;5006927;28;20414;-83
2023/10/25 07:03:44;;;;;;;12.47;8.97;;;;;;;;;;5015822;28;20407;-83
2023/10/25 07:06:10;;;;;;;15.77;9.48;;;;;;;;;;5015479;28;20414;-83
2023/10/25 07:08:37;;;;;;;14.13;9.38;;;;;;;;;;5015115;28;20435;-83
2023/10/25 07:11:03;;;;;;;12.30;8.75;;;;;;;;;;5026689;28;20442;-84
2023/10/25 07:13:30;;;;;;;14.57;8.77;;;;;;;;;;5037045;28;20421;-84
2023/10/25 07:15:57;;;;;;;12.20;8.77;;;;;;;;;;5014771;28;20409;-84
2023/10/25 07:18:23;;;;;;;14.45;8.93;;;;;;;;;;5015396;28;20399;-83
2023/10/25 07:20:52;;;;;;;12.95;9.25;;;;;;;;;;5015096;28;20421;-84
2023/10/25 07:23:18;;;;;;;14.80;9.20;;;;;;;;;;5048388;28;20498;-84
2023/10/25 07:25:44;;;;;;;12.55;9.48;;;;;;;;;;5045671;28;20411;-84
2023/10/25 07:28:14;;;;;;;11.85;8.85;;;;;;;;;;5048189;28;20415;-84
2023/10/25 07:30:40;;;;;;;12.27;8.88;;;;;;;;;;5050034;28;20417;-83
2023/10/25 07:33:07;;;;;;;15.05;8.57;;;;;;;;;;5034842;28;20406;-83
2023/10/25 07:35:35;;;;;;;11.07;8.07;;;;;;;;;;5014157;28;20411;-84
2023/10/25 07:38:01;;;;;;;15.73;8.60;;;;;;;;;;5005790;28;20441;-83
2023/10/25 07:40:27;;;;;;;15.18;8.98;;;;;;;;;;5000823;28;20411;-83
2023/10/25 07:42:53;;;;;;;12.10;8.40;;;;;;;;;;5011668;28;20440;-84
2023/10/25 07:45:22;;;;;;;11.40;8.20;;;;;;;;;;5002933;28;20443;-84
2023/10/25 07:47:48;;;;;;;11.10;8.05;;;;;;;;;;4995945;28;20476;-84
2023/10/25 07:50:18;;;;;;;13.18;8.25;;;;;;;;;;5005289;28;20424;-83
2023/10/25 07:52:45;;;;;;;12.43;7.78;;;;;;;;;;5011399;28;20436;-83
2023/10/25 07:55:11;;;;;;;11.82;8.30;;;;;;;;;;5017038;28;20407;-83
2023/10/25 07:57:38;;;;;;;9.82;7.43;;;;;;;;;;5014489;28;20481;-84
2023/10/25 08:00:11;;;;;;;12.53;8.77;;;;;;;;;;5016124;28;20407;-83
2023/10/25 08:02:37;;;;;;;11.73;8.37;;;;;;;;;;5043972;28;20412;-83
2023/10/25 08:05:05;;;;;;;12.30;8.10;;;;;;;;;;5024998;28;20420;-84
2023/10/25 08:07:32;;;;;;;12.55;7.93;;;;;;;;;;5005913;28;20417;-83
2023/10/25 08:09:58;;;;;;;11.43;7.82;;;;;;;;;;4998175;28;20443;-84
2023/10/25 08:12:27;;;;;;;11.98;8.40;;;;;;;;;;5001442;28;20436;-84
2023/10/25 08:14:53;;;;;;;12.77;8.70;;;;;;;;;;5002723;28;20446;-84
2023/10/25 08:17:19;;;;;;;14.48;8.90;;;;;;;;;;5010730;28;20452;-84
2023/10/25 08:19:45;;;;;;;14.43;9.20;;;;;;;;;;5011281;28;20409;-84
2023/10/25 08:22:14;;;;;;;13.63;8.75;;;;;;;;;;5012877;28;20475;-83
2023/10/25 08:24:40;;;;;;;12.38;8.40;;;;;;;;;;5014681;28;20486;-84
2023/10/25 08:27:06;;;;;;;11.93;7.95;;;;;;;;;;5011107;28;20420;-84
2023/10/25 08:29:38;;;;;;;13.02;8.68;;;;;;;;;;4994588;28;20413;-84
2023/10/25 08:32:04;;;;;;;12.90;8.25;;;;;;;;;;4997765;28;20436;-84
2023/10/25 08:34:30;;;;;;;12.55;7.65;;;;;;;;;;5011515;28;20412;-83
2023/10/25 08:37:01;;;;;;;14.80;8.20;;;;;;;;;;5011153;28;20448;-83
2023/10/25 08:39:33;;;;;;;14.27;7.85;;;;;;;;;;5021543;28;20500;-84
2023/10/25 08:42:02;;;;;;;12.85;8.20;;;;;;;;;;5012349;28;20503;-83
2023/10/25 08:44:34;;;;;;;11.18;7.78;;;;;;;;;;5013371;28;20439;-83
2023/10/25 08:47:00;;;;;;;11.25;7.97;;;;;;;;;;5010281;28;20424;-84
2023/10/25 08:49:26;;;;;;;10.63;7.50;;;;;;;;;;5011849;28;20484;-82
2023/10/25 08:51:55;;;;;;;12.85;7.20;;;;;;;;;;5017289;28;20431;-82
2023/10/25 08:54:24;;;;;;;10.07;8.00;;;;;;;;;;5012373;28;20445;-82
2023/10/25 08:56:52;;;;;;;14.83;7.83;;;;;;;;;;5011487;28;20404;-83
2023/10/25 08:59:19;;;;;;;11.25;7.70;;;;;;;;;;5010449;28;20413;-82
2023/10/25 09:01:45;;;;;;;10.82;7.68;;;;;;;;;;4994000;28;20416;-82
2023/10/25 09:04:11;;;;;;;13.80;8.50;;;;;;;;;;5023978;28;20410;-81
2023/10/25 09:06:39;;;;;;;12.93;8.70;;;;;;;;;;5010931;28;20416;-82
2023/10/25 09:09:06;;;;;;;14.52;8.68;;;;;;;;;;5002450;28;20467;-81
2023/10/25 09:11:46;;;;;;;13.70;8.13;;;;;;;;;;5012032;28;20436;-81
2023/10/25 09:14:13;;;;;;;10.70;8.10;;;;;;;;;;5013162;28;20426;-81
2023/10/25 09:16:41;;;;;;;13.38;8.40;;;;;;;;;;5009956;28;20484;-82
2023/10/25 09:19:07;;;;;;;13.45;8.57;;;;;;;;;;4999536;28;20499;-82
2023/10/25 09:21:36;;;;;;;11.53;8.13;;;;;;;;;;5000199;28;20416;-82
2023/10/25 09:24:07;;;;;;;12.48;8.00;;;;;;;;;;4993240;28;20424;-82
2023/10/25 09:26:34;;;;;;;10.60;8.27;;;;;;;;;;5001275;28;20426;-81
2023/10/25 09:29:00;;;;;;;11.20;8.30;;;;;;;;;;4993488;28;20420;-82
2023/10/25 09:31:31;;;;;;;13.60;8.27;;;;;;;;;;4999453;28;20516;-81
2023/10/25 09:33:58;;;;;;;11.70;8.48;;;;;;;;;;4993460;28;20419;-81
2023/10/25 09:36:26;;;;;;;10.60;8.75;;;;;;;;;;4993365;28;20409;-82
2023/10/25 09:38:55;;;;;;;11.05;8.50;;;;;;;;;;4993473;28;20420;-82
2023/10/25 09:41:22;;;;;;;12.55;8.93;;;;;;;;;;5006646;28;20412;-82
2023/10/25 09:44:08;;;;;;;14.87;9.20;;;;;;;;;;5009980;28;20417;-81
2023/10/25 09:46:35;;;;;;;12.73;8.40;;;;;;;;;;4995619;28;20405;-82
2023/10/25 09:49:07;;;;;;;10.93;8.00;;;;;;;;;;5012852;28;20415;-82
2023/10/25 09:51:46;;;;;;;11.57;8.50;;;;;;;;;;5013382;28;20450;-83
2023/10/25 09:54:17;;;;;;;10.60;7.65;;;;;;;;;;5010061;28;20451;-82
2023/10/25 09:56:45;;;;;;;10.18;7.97;;;;;;;;;;5001979;28;20592;-82
2023/10/25 09:59:13;;;;;;;13.27;7.70;;;;;;;;;;5008358;28;20507;-81
2023/10/25 10:01:40;;;;;;;11.05;7.90;;;;;;;;;;4993029;28;20408;-82
2023/10/25 10:04:12;;;;;;;11.15;7.90;;;;;;;;;;4993102;28;20432;-82
2023/10/25 10:06:47;;;;;;;13.43;8.88;;;;;;;;;;4993347;28;20478;-83
2023/10/25 10:09:16;;;;;;;12.93;7.77;;;;;;;;;;4999019;28;20229;-82
2023/10/25 10:11:46;;;;;;;10.17;7.23;;;;;;;;;;5009662;28;20218;-83
2023/10/25 10:14:28;;;;;;;12.98;8.35;;;;;;;;;;5009555;28;20424;-82
2023/10/25 10:16:58;;;;;;;11.73;7.30;;;;;;;;;;5001451;28;20250;-83
2023/10/25 10:19:24;;;;;;;11.45;8.10;;;;;;;;;;4993181;28;20408;-83
2023/10/25 10:22:10;;;;;;;12.43;8.20;;;;;;;;;;4992785;28;20424;-83
2023/10/25 10:24:42;;;;;;;12.65;8.00;;;;;;;;;;4992623;28;20428;-83
2023/10/25 10:27:09;;;;;;;13.73;8.15;;;;;;;;;;4999419;28;20421;-83
2023/10/25 10:29:35;;;;;;;11.23;8.33;;;;;;;;;;5009261;28;20412;-83
2023/10/25 10:32:06;;;;;;;13.85;8.50;;;;;;;;;;5030455;28;20421;-82
2023/10/25 10:34:42;;;;;;;14.07;6.80;;;;;;;;;;5015995;28;20189;-83
2023/10/25 10:37:20;;;;;;;13.48;8.18;;;;;;;;;;5013454;28;20412;-83
2023/10/25 10:39:59;;;;;;;12.63;7.27;;;;;;;;;;5013942;28;20177;-83
2023/10/25 10:42:33;;;;;;;11.85;7.60;;;;;;;;;;5008692;28;20503;-83
2023/10/25 10:45:03;;;;;;;11.60;6.90;;;;;;;;;;5002721;28;20191;-83
2023/10/25 10:47:51;;;;;;;12.88;7.43;;;;;;;;;;5007333;28;20408;-83
2023/10/25 10:50:18;;;;;;;13.30;7.18;;;;;;;;;;5022907;28;20425;-83
2023/10/25 10:52:47;;;;;;;12.83;6.53;;;;;;;;;;5035792;28;20461;-82
2023/10/25 10:55:17;;;;;;;11.47;6.87;;;;;;;;;;5012663;28;20408;-82
2023/10/25 10:57:46;;;;;;;8.10;5.77;;;;;;;;;;5005213;28;20447;-82
2023/10/25 11:00:16;;;;;;;12.65;7.15;;;;;;;;;;5012188;28;20412;-82
2023/10/25 11:02:45;;;;;;;12.10;6.17;;;;;;;;;;5001854;28;20193;-82
2023/10/25 11:05:14;;;;;;;11.57;6.25;;;;;;;;;;5014807;28;20419;-83
2023/10/25 11:07:43;;;;;;;12.88;6.95;;;;;;;;;;5012614;28;20424;-83
2023/10/25 11:10:10;;;;;;;11.27;5.60;;;;;;;;;;5016352;28;20203;-83
2023/10/25 11:12:36;;;;;;;10.35;5.63;;;;;;;;;;5013174;28;20442;-83
2023/10/25 11:15:06;;;;;;;9.93;6.97;;;;;;;;;;5014936;28;20423;-83
2023/10/25 11:17:32;;;;;;;11.20;5.83;;;;;;;;;;5013784;28;20200;-83
2023/10/25 11:19:59;;;;;;;11.32;5.53;;;;;;;;;;5013392;28;20515;-83
2023/10/25 11:22:36;;;;;;;10.67;5.57;;;;;;;;;;4997013;28;20185;-82
2023/10/25 11:25:19;;;;;;;14.93;5.60;;;;;;;;;;5002619;28;20224;-82
2023/10/25 11:27:45;;;;;;;10.07;6.20;;;;;;;;;;5011894;28;20444;-83
2023/10/25 11:30:14;;;;;;;10.70;6.72;;;;;;;;;;5011782;28;20422;-83
2023/10/25 11:32:49;;;;;;;11.20;5.80;;;;;;;;;;5017098;28;20440;-84
2023/10/25 11:35:41;;;;;;;11.83;5.43;;;;;;;;;;5004026;28;20201;-83
2023/10/25 11:38:08;;;;;;;8.38;6.15;;;;;;;;;;5011745;28;20467;-83
2023/10/25 11:40:45;;;;;;;10.55;6.22;;;;;;;;;;4995246;28;20401;-83
2023/10/25 11:43:12;;;;;;;9.03;5.97;;;;;;;;;;4999754;28;20468;-83
2023/10/25 11:45:39;;;;;;;10.03;5.97;;;;;;;;;;4996003;28;20185;-83
2023/10/25 11:48:12;;;;;;;8.73;5.37;;;;;;;;;;5006700;28;20186;-83
2023/10/25 11:50:46;;;;;;;10.47;6.00;;;;;;;;;;5012678;28;20181;-83
2023/10/25 11:53:14;;;;;;;8.90;5.37;;;;;;;;;;5007348;28;20201;-83
2023/10/25 11:55:43;;;;;;;9.90;5.70;;;;;;;;;;5024085;28;20185;-84
2023/10/25 11:58:15;;;;;;;9.30;6.07;;;;;;;;;;5036747;28;20177;-83
2023/10/25 12:00:44;;;;;;;8.27;5.73;;;;;;;;;;5036383;28;20184;-84
2023/10/25 12:03:12;;;;;;;7.60;5.80;;;;;;;;;;5036173;28;20184;-84
2023/10/25 12:05:41;;;;;;;9.47;6.27;;;;;;;;;;5019935;28;20176;-83
2023/10/25 12:08:07;;;;;;;11.37;6.17;;;;;;;;;;5013747;28;20312;-83
2023/10/25 12:10:34;;;;;;;13.87;6.20;;;;;;;;;;4996738;28;20182;-84
2023/10/25 12:13:03;;;;;;;10.23;5.97;;;;;;;;;;5005454;28;20222;-85
2023/10/25 12:15:29;;;;;;;8.23;6.17;;;;;;;;;;5012858;28;20193;-84
2023/10/25 12:17:55;;;;;;;8.70;6.47;;;;;;;;;;4996931;28;20174;-85
2023/10/25 12:20:21;;;;;;;11.47;6.47;;;;;;;;;;5023659;28;20196;-85
2023/10/25 12:22:50;;;;;;;10.47;6.57;;;;;;;;;;5016234;28;20181;-85
2023/10/25 12:25:16;;;;;;;9.03;5.83;;;;;;;;;;5013368;28;20228;-85
2023/10/25 12:27:44;;;;;;;9.57;6.50;;;;;;;;;;4997119;28;20193;-84
2023/10/25 12:30:18;;;;;;;9.70;6.60;;;;;;;;;;5004423;28;20242;-84
2023/10/25 12:32:46;;;;;;;9.53;6.50;;;;;;;;;;5000288;28;20213;-84
2023/10/25 12:35:12;;;;;;;8.93;6.90;;;;;;;;;;5013399;28;20206;-85
2023/10/25 12:37:39;;;;;;;9.43;6.80;;;;;;;;;;4996326;28;20273;-84
2023/10/25 12:40:08;;;;;;;10.90;7.03;;;;;;;;;;4996628;28;20228;-85
2023/10/25 12:42:34;;;;;;;11.10;6.83;;;;;;;;;;4998992;28;20218;-85
2023/10/25 12:45:03;;;;;;;12.47;7.00;;;;;;;;;;5006091;28;20190;-85
2023/10/25 12:47:32;;;;;;;9.47;6.33;;;;;;;;;;5004418;28;20189;-84
2023/10/25 12:49:58;;;;;;;9.67;6.63;;;;;;;;;;4996248;28;20186;-84
2023/10/25 12:52:24;;;;;;;11.83;6.20;;;;;;;;;;4995069;28;20224;-84
2023/10/25 12:54:52;;;;;;;9.57;5.93;;;;;;;;;;5012523;28;20199;-85
2023/10/25 12:57:18;;;;;;;7.13;5.83;;;;;;;;;;5015032;28;20184;-85
2023/10/25 12:59:44;;;;;;;6.70;5.60;;;;;;;;;;5014091;28;20186;-86
2023/10/25 13:02:13;;;;;;;10.63;5.73;;;;;;;;;;5014707;28;20186;-86
2023/10/25 13:04:39;;;;;;;12.30;5.93;;;;;;;;;;5014635;28;20181;-85
2023/10/25 13:07:05;;;;;;;9.73;5.80;;;;;;;;;;5014634;28;20185;-85
2023/10/25 13:09:32;;;;;;;10.93;5.37;;;;;;;;;;5011156;28;20324;-85
2023/10/25 13:12:01;;;;;;;10.07;5.90;;;;;;;;;;4995125;28;20223;-84
2023/10/25 13:14:29;;;;;;;8.77;5.67;;;;;;;;;;4994991;28;20174;-84
2023/10/25 13:16:55;;;;;;;10.13;5.63;;;;;;;;;;4995131;28;20188;-85
2023/10/25 13:19:24;;;;;;;9.53;5.90;;;;;;;;;;5002984;28;20217;-85
2023/10/25 13:21:50;;;;;;;10.60;6.00;;;;;;;;;;4995306;28;20182;-84
2023/10/25 13:24:16;;;;;;;9.87;5.43;;;;;;;;;;4994595;28;20185;-85
2023/10/25 13:26:45;;;;;;;8.00;5.70;;;;;;;;;;5001327;28;20189;-85
2023/10/25 13:29:11;;;;;;;7.87;5.40;;;;;;;;;;5014050;28;20191;-85
2023/10/25 13:31:37;;;;;;;8.23;5.23;;;;;;;;;;5026885;28;20216;-84
2023/10/25 13:34:06;;;;;;;6.03;4.40;;;;;;;;;;5013852;28;20193;-84
2023/10/25 13:36:32;;;;;;;7.17;4.57;;;;;;;;;;5010470;28;20206;-85
2023/10/25 13:38:58;;;;;;;7.20;4.10;;;;;;;;;;5006172;28;20197;-84
2023/10/25 13:41:24;;;;;;;6.37;4.07;;;;;;;;;;5013918;28;20272;-84
2023/10/25 13:43:52;;;;;;;5.33;4.43;;;;;;;;;;5013549;28;20239;-84
2023/10/25 13:46:18;;;;;;;8.27;4.70;;;;;;;;;;5010515;28;20297;-84
2023/10/25 13:48:44;;;;;;;5.37;4.03;;;;;;;;;;4994071;28;20221;-84
2023/10/25 13:51:10;;;;;;;6.70;4.43;;;;;;;;;;4994169;28;20276;-85
2023/10/25 13:53:37;;;;;;;4.60;3.90;;;;;;;;;;4994562;28;20178;-84
2023/10/25 13:56:03;;;;;;;7.00;4.70;;;;;;;;;;4994030;28;20232;-84
2023/10/25 13:58:30;;;;;;;6.30;4.37;;;;;;;;;;4994490;28;20185;-84
2023/10/25 14:00:56;;;;;;;7.93;4.47;;;;;;;;;;4994234;28;20180;-85
2023/10/25 14:03:25;;;;;;;5.83;4.10;;;;;;;;;;4994434;28;20174;-85
2023/10/25 14:05:51;;;;;;;6.97;4.20;;;;;;;;;;4994277;28;20178;-84
2023/10/25 14:08:17;;;;;;;8.50;4.00;;;;;;;;;;5012889;28;20320;-85
2023/10/25 14:10:49;;;;;;;6.03;4.20;;;;;;;;;;5009375;28;20213;-85
2023/10/25 14:13:15;;;;;;;6.93;4.07;;;;;;;;;;5026587;28;20219;-85
2023/10/25 14:15:44;;;;;;;5.77;3.70;;;;;;;;;;4997304;28;20276;-85
2023/10/25 14:18:12;;;;;;;7.07;4.00;;;;;;;;;;5014256;28;20177;-85
2023/10/25 14:20:39;;;;;;;6.20;4.10;;;;;;;;;;5013918;28;20177;-84
2023/10/25 15:01:37;;;;;;;;;;;;;;;;;;;;;
2023/10/25 15:48:32;;;;;;;6.57;4.87;;;;;;;;;;4821719;29;20222;-94
2023/10/25 15:51:00;;;;;;;7.83;5.77;;;;;;;;;;4784172;29;20242;-94
2023/10/25 15:56:43;;;;;;;5.77;5.20;;;;;;;;;;4949846;23;20240;-77
2023/10/25 15:59:11;;;;;;;6.40;5.80;;;;;;;;;;5015119;28;20185;-77
2023/10/25 16:01:37;;;;;;;5.90;5.40;;;;;;;;;;5031990;28;20186;-76
2023/10/25 16:04:03;;;;;;;6.20;5.27;;;;;;;;;;5031389;28;20189;-76
2023/10/25 16:06:32;;;;;;;6.80;5.30;;;;;;;;;;4999016;28;20193;-76
2023/10/25 16:08:59;;;;;;;7.67;5.67;;;;;;;;;;5031488;28;20185;-76